Time;durP1;ratioP1;P1;durP2;ratioP2;P2;SDS_P1;SDS_P2;PMS_P1;PMS_P2;Temp;Humidity;BMP_temperature;BMP_pressure;BME280_temperature;BME280_humidity;BME280_pressure;Samples;Min_cycle;Max_cycle;Signal;HPM_P1;HPM_P2
2021/05/31 00:02:13;;;;;;;6.15;2.28;;;;;;;;;;4987120;28;20050;-56
2021/05/31 00:04:39;;;;;;;3.25;2.15;;;;;;;;;;4968964;28;20413;-56
2021/05/31 00:07:09;;;;;;;3.95;1.90;;;;;;;;;;4986118;28;20038;-56
2021/05/31 00:09:37;;;;;;;3.65;2.10;;;;;;;;;;4988924;28;20121;-56
2021/05/31 00:12:05;;;;;;;4.95;2.10;;;;;;;;;;4987222;28;20045;-56
2021/05/31 00:14:30;;;;;;;4.32;2.35;;;;;;;;;;4986165;28;20038;-56
2021/05/31 00:16:56;;;;;;;2.88;1.90;;;;;;;;;;5010276;28;20104;-56
2021/05/31 00:19:23;;;;;;;4.60;2.13;;;;;;;;;;5019001;28;20031;-56
2021/05/31 00:21:49;;;;;;;3.20;1.77;;;;;;;;;;4988002;28;20480;-56
2021/05/31 00:24:15;;;;;;;4.63;2.15;;;;;;;;;;4987337;28;20452;-56
2021/05/31 00:26:41;;;;;;;2.42;1.83;;;;;;;;;;4986156;28;20109;-56
2021/05/31 00:29:07;;;;;;;3.70;2.08;;;;;;;;;;4985694;28;20309;-56
2021/05/31 00:31:33;;;;;;;4.55;2.45;;;;;;;;;;4987964;28;20477;-56
2021/05/31 00:33:59;;;;;;;3.45;2.25;;;;;;;;;;5000724;28;20117;-56
2021/05/31 00:36:27;;;;;;;4.18;2.40;;;;;;;;;;4985166;28;20021;-57
2021/05/31 00:38:52;;;;;;;4.22;2.58;;;;;;;;;;5018276;28;20503;-56
2021/05/31 00:41:20;;;;;;;3.97;2.38;;;;;;;;;;5018316;28;20027;-56
2021/05/31 00:43:45;;;;;;;3.92;2.47;;;;;;;;;;5016753;28;20034;-56
2021/05/31 00:46:11;;;;;;;4.20;2.78;;;;;;;;;;4984989;28;20402;-56
2021/05/31 00:48:38;;;;;;;4.15;2.85;;;;;;;;;;4969864;28;20030;-56
2021/05/31 00:51:07;;;;;;;5.10;2.22;;;;;;;;;;4989338;28;20030;-56
2021/05/31 00:53:33;;;;;;;4.38;2.20;;;;;;;;;;4985068;28;20045;-56
2021/05/31 00:55:59;;;;;;;4.25;2.00;;;;;;;;;;4984259;28;20037;-56
2021/05/31 00:58:27;;;;;;;3.88;2.00;;;;;;;;;;4980301;28;20026;-56
2021/05/31 01:00:57;;;;;;;4.78;2.15;;;;;;;;;;4987312;28;20026;-57
2021/05/31 01:03:24;;;;;;;2.97;2.00;;;;;;;;;;4987165;28;20639;-56
2021/05/31 01:05:50;;;;;;;2.85;2.17;;;;;;;;;;4985579;28;20073;-55
2021/05/31 01:08:24;;;;;;;2.63;1.98;;;;;;;;;;5017182;28;20030;-56
2021/05/31 01:11:05;;;;;;;3.17;2.42;;;;;;;;;;4985583;28;20533;-56
2021/05/31 01:13:54;;;;;;;8.07;2.35;;;;;;;;;;5014930;28;20117;-56
2021/05/31 01:16:55;;;;;;;3.65;2.10;;;;;;;;;;4986156;28;20106;-56
2021/05/31 01:19:51;;;;;;;4.63;2.20;;;;;;;;;;4983464;28;20041;-56
2021/05/31 01:22:27;;;;;;;4.30;2.30;;;;;;;;;;4985395;28;20161;-56
2021/05/31 01:25:16;;;;;;;5.25;2.13;;;;;;;;;;5017965;28;20073;-56
2021/05/31 01:28:14;;;;;;;3.58;2.10;;;;;;;;;;4985519;28;20023;-56
2021/05/31 01:30:46;;;;;;;2.55;1.70;;;;;;;;;;4983355;28;20037;-56
2021/05/31 01:33:16;;;;;;;3.00;2.10;;;;;;;;;;4985516;28;20240;-56
2021/05/31 01:35:43;;;;;;;4.47;2.20;;;;;;;;;;4985425;28;20110;-56
2021/05/31 01:38:09;;;;;;;3.20;2.22;;;;;;;;;;5016629;28;20034;-56
2021/05/31 01:40:35;;;;;;;5.22;2.10;;;;;;;;;;4984540;28;20161;-56
2021/05/31 01:43:04;;;;;;;3.35;2.15;;;;;;;;;;4986133;28;20590;-56
2021/05/31 01:45:30;;;;;;;3.35;2.20;;;;;;;;;;4984360;28;20783;-56
2021/05/31 01:47:56;;;;;;;5.15;2.08;;;;;;;;;;4984487;28;20042;-56
2021/05/31 01:50:23;;;;;;;4.00;2.10;;;;;;;;;;4982184;28;23726;-56
2021/05/31 01:52:49;;;;;;;2.95;2.45;;;;;;;;;;5017988;28;20050;-57
2021/05/31 01:55:15;;;;;;;5.28;2.35;;;;;;;;;;4968542;28;20152;-56
2021/05/31 01:57:46;;;;;;;3.28;2.53;;;;;;;;;;4977751;28;20042;-56
2021/05/31 02:00:14;;;;;;;3.47;2.08;;;;;;;;;;4985375;28;20033;-56
2021/05/31 02:02:40;;;;;;;3.00;2.10;;;;;;;;;;4985726;28;20026;-56
2021/05/31 02:05:14;;;;;;;5.38;2.55;;;;;;;;;;4982245;28;20111;-56
2021/05/31 02:07:40;;;;;;;4.55;2.47;;;;;;;;;;4980469;28;20497;-56
2021/05/31 02:10:11;;;;;;;5.15;2.25;;;;;;;;;;4983734;28;20116;-57
2021/05/31 02:12:52;;;;;;;3.67;2.47;;;;;;;;;;4984415;28;20030;-58
2021/05/31 02:15:22;;;;;;;3.22;2.20;;;;;;;;;;4985103;28;20026;-57
2021/05/31 02:18:00;;;;;;;3.35;2.30;;;;;;;;;;4965630;28;20176;-57
2021/05/31 02:20:27;;;;;;;3.22;2.38;;;;;;;;;;5015122;28;20125;-57
2021/05/31 02:23:01;;;;;;;5.35;2.63;;;;;;;;;;4986106;28;20073;-57
2021/05/31 02:25:27;;;;;;;4.03;2.45;;;;;;;;;;5018174;28;20125;-56
2021/05/31 02:27:53;;;;;;;3.55;2.80;;;;;;;;;;4983535;28;20556;-56
2021/05/31 02:30:19;;;;;;;4.65;2.58;;;;;;;;;;4983781;28;20031;-56
2021/05/31 02:32:59;;;;;;;4.45;2.42;;;;;;;;;;4985737;28;20027;-56
2021/05/31 02:35:26;;;;;;;3.50;2.67;;;;;;;;;;4985039;28;20041;-56
2021/05/31 02:37:53;;;;;;;6.22;2.65;;;;;;;;;;5017050;28;20034;-56
2021/05/31 02:40:19;;;;;;;4.30;2.80;;;;;;;;;;4982780;28;20023;-57
2021/05/31 02:42:48;;;;;;;5.55;3.15;;;;;;;;;;4984194;28;20027;-56
2021/05/31 02:45:15;;;;;;;3.22;2.53;;;;;;;;;;4983100;28;20081;-56
2021/05/31 02:47:41;;;;;;;3.72;2.70;;;;;;;;;;4982034;28;20117;-56
2021/05/31 02:50:07;;;;;;;3.60;2.67;;;;;;;;;;5019025;28;20441;-57
2021/05/31 02:52:33;;;;;;;3.83;2.28;;;;;;;;;;4980287;28;20458;-56
2021/05/31 02:54:59;;;;;;;5.97;2.60;;;;;;;;;;4984769;28;20089;-56
2021/05/31 02:57:25;;;;;;;3.15;2.53;;;;;;;;;;4986576;28;20053;-56
2021/05/31 02:59:52;;;;;;;5.00;2.40;;;;;;;;;;5017136;28;20423;-56
2021/05/31 03:02:18;;;;;;;5.43;2.67;;;;;;;;;;5016153;28;20052;-56
2021/05/31 03:04:44;;;;;;;5.45;2.67;;;;;;;;;;5017986;28;20034;-57
2021/05/31 03:07:10;;;;;;;5.43;2.90;;;;;;;;;;4984883;28;20366;-56
2021/05/31 03:09:36;;;;;;;4.38;2.70;;;;;;;;;;5003601;28;20429;-56
2021/05/31 03:12:02;;;;;;;7.78;2.95;;;;;;;;;;4983434;28;20030;-58
2021/05/31 03:14:27;;;;;;;4.38;2.72;;;;;;;;;;4999265;28;20100;-57
2021/05/31 03:16:53;;;;;;;5.95;2.85;;;;;;;;;;4983435;28;20027;-56
2021/05/31 03:19:19;;;;;;;4.50;2.67;;;;;;;;;;4983099;28;20030;-56
2021/05/31 03:21:44;;;;;;;5.25;2.45;;;;;;;;;;4982758;28;20440;-56
2021/05/31 03:24:10;;;;;;;3.55;2.58;;;;;;;;;;4998389;28;20033;-57
2021/05/31 03:26:36;;;;;;;3.97;2.58;;;;;;;;;;4985683;28;20034;-56
2021/05/31 03:29:01;;;;;;;6.00;3.42;;;;;;;;;;5013558;28;20038;-56
2021/05/31 03:31:27;;;;;;;6.55;4.45;;;;;;;;;;4986349;28;20034;-57
2021/05/31 03:33:53;;;;;;;5.30;3.70;;;;;;;;;;4973726;28;20084;-57
2021/05/31 03:36:19;;;;;;;6.20;3.70;;;;;;;;;;5019843;28;20389;-57
2021/05/31 03:38:44;;;;;;;4.68;3.30;;;;;;;;;;4988644;28;20030;-57
2021/05/31 03:41:10;;;;;;;4.93;3.20;;;;;;;;;;4987321;28;20061;-56
2021/05/31 03:43:35;;;;;;;5.40;3.33;;;;;;;;;;4987744;28;20499;-57
2021/05/31 03:46:02;;;;;;;7.25;4.35;;;;;;;;;;4988111;28;20730;-57
2021/05/31 03:48:28;;;;;;;5.88;3.90;;;;;;;;;;4986072;28;20136;-57
2021/05/31 03:51:08;;;;;;;5.15;3.97;;;;;;;;;;4985564;28;20130;-57
2021/05/31 03:53:37;;;;;;;7.15;4.07;;;;;;;;;;4985824;28;20117;-57
2021/05/31 03:56:03;;;;;;;;;;;;;;;;;;4987775;28;20041;-56
2021/05/31 03:58:29;;;;;;;4.57;3.40;;;;;;;;;;4982855;28;19917;-57
2021/05/31 04:00:54;;;;;;;7.00;3.65;;;;;;;;;;4986628;28;20503;-57
2021/05/31 04:03:20;;;;;;;7.28;3.78;;;;;;;;;;4986578;28;20033;-57
2021/05/31 04:06:38;;;;;;;5.93;3.50;;;;;;;;;;4987261;28;20034;-56
2021/05/31 04:14:08;;;;;;;5.68;3.72;;;;;;;;;;4986881;28;20042;-57
2021/05/31 04:16:35;;;;;;;5.38;3.47;;;;;;;;;;4987533;28;20324;-56
2021/05/31 04:19:02;;;;;;;7.93;4.53;;;;;;;;;;4986511;28;20100;-57
2021/05/31 04:21:28;;;;;;;6.05;4.00;;;;;;;;;;4986456;28;20026;-55
2021/05/31 04:23:54;;;;;;;7.10;4.28;;;;;;;;;;4988502;28;20528;-57
2021/05/31 04:26:20;;;;;;;5.65;4.00;;;;;;;;;;5016923;28;20034;-57
2021/05/31 04:28:45;;;;;;;7.13;4.10;;;;;;;;;;5020148;28;20070;-57
2021/05/31 04:31:11;;;;;;;6.75;4.10;;;;;;;;;;4987376;28;20493;-58
2021/05/31 04:33:37;;;;;;;8.10;4.25;;;;;;;;;;4988641;28;20072;-58
2021/05/31 04:36:03;;;;;;;5.60;4.03;;;;;;;;;;4985018;28;20473;-57
2021/05/31 04:38:28;;;;;;;4.97;3.38;;;;;;;;;;4983416;28;20037;-58
2021/05/31 04:40:54;;;;;;;6.22;3.85;;;;;;;;;;4989383;28;20030;-57
2021/05/31 04:43:20;;;;;;;6.45;4.00;;;;;;;;;;4986751;28;20018;-57
2021/05/31 04:45:46;;;;;;;8.40;3.90;;;;;;;;;;4983449;28;20061;-58
2021/05/31 04:48:11;;;;;;;8.13;4.00;;;;;;;;;;4985241;28;20034;-58
2021/05/31 04:50:37;;;;;;;7.45;3.50;;;;;;;;;;4986307;28;20498;-58
2021/05/31 04:53:03;;;;;;;7.28;3.85;;;;;;;;;;4986491;28;20034;-58
2021/05/31 04:55:28;;;;;;;6.85;3.92;;;;;;;;;;4984941;28;20497;-58
2021/05/31 04:57:54;;;;;;;6.72;4.32;;;;;;;;;;4984185;28;20031;-58
2021/05/31 05:00:19;;;;;;;16.23;7.13;;;;;;;;;;4986350;28;20026;-57
2021/05/31 05:02:45;;;;;;;13.18;7.47;;;;;;;;;;4969285;28;20077;-57
2021/05/31 05:05:12;;;;;;;6.55;4.25;;;;;;;;;;5017606;28;20030;-57
2021/05/31 05:07:56;;;;;;;7.00;4.45;;;;;;;;;;4985299;28;20045;-56
2021/05/31 05:10:22;;;;;;;7.63;4.63;;;;;;;;;;4984490;28;20084;-58
2021/05/31 05:12:49;;;;;;;7.85;4.65;;;;;;;;;;4983312;28;20041;-59
2021/05/31 05:15:16;;;;;;;6.22;4.53;;;;;;;;;;4983353;28;20045;-58
2021/05/31 05:17:43;;;;;;;9.43;4.38;;;;;;;;;;4983695;28;20026;-59
2021/05/31 05:20:12;;;;;;;5.95;3.72;;;;;;;;;;4984791;28;20022;-58
2021/05/31 05:22:38;;;;;;;3.72;2.58;;;;;;;;;;4984703;28;20058;-56
2021/05/31 05:25:05;;;;;;;7.43;3.60;;;;;;;;;;4984147;28;20445;-58
2021/05/31 05:27:31;;;;;;;8.63;4.15;;;;;;;;;;4983211;28;20073;-59
2021/05/31 05:29:58;;;;;;;6.82;4.40;;;;;;;;;;4986097;28;20026;-59
2021/05/31 05:32:24;;;;;;;5.57;4.10;;;;;;;;;;4985441;28;20026;-58
2021/05/31 05:34:56;;;;;;;4.68;3.10;;;;;;;;;;4984640;28;20100;-59
2021/05/31 05:37:29;;;;;;;4.07;2.78;;;;;;;;;;5008359;28;20030;-58
2021/05/31 05:40:16;;;;;;;5.80;3.17;;;;;;;;;;4980300;28;20022;-59
2021/05/31 05:48:00;;;;;;;5.63;3.08;;;;;;;;;;4988166;28;20043;-59
2021/05/31 05:50:26;;;;;;;6.30;2.90;;;;;;;;;;4981448;28;20121;-59
2021/05/31 05:52:53;;;;;;;4.10;2.70;;;;;;;;;;4982326;28;20108;-59
2021/05/31 05:55:18;;;;;;;3.90;2.95;;;;;;;;;;5013540;28;20568;-59
2021/05/31 05:57:47;;;;;;;3.58;2.63;;;;;;;;;;5012969;28;20121;-59
2021/05/31 06:00:22;;;;;;;3.70;3.10;;;;;;;;;;4982966;28;20023;-60
2021/05/31 06:02:48;;;;;;;2.75;2.40;;;;;;;;;;4981932;28;20025;-59
2021/05/31 06:05:14;;;;;;;5.35;3.30;;;;;;;;;;4977844;28;20451;-59
2021/05/31 06:07:40;;;;;;;5.30;3.92;;;;;;;;;;4981206;28;20388;-59
2021/05/31 06:10:07;;;;;;;4.05;3.05;;;;;;;;;;4984092;28;20040;-59
2021/05/31 06:12:33;;;;;;;4.55;2.80;;;;;;;;;;4983312;28;20485;-59
2021/05/31 06:14:59;;;;;;;4.30;3.15;;;;;;;;;;4986245;28;20289;-59
2021/05/31 06:17:24;;;;;;;4.93;3.30;;;;;;;;;;4983927;28;20096;-59
2021/05/31 06:19:50;;;;;;;5.18;2.90;;;;;;;;;;4983459;28;20137;-59
2021/05/31 06:22:15;;;;;;;3.90;2.67;;;;;;;;;;4980654;28;20072;-59
2021/05/31 06:24:43;;;;;;;5.18;2.90;;;;;;;;;;4983110;28;20048;-59
2021/05/31 06:27:09;;;;;;;4.68;2.30;;;;;;;;;;4985377;28;20026;-59
2021/05/31 06:29:35;;;;;;;3.95;2.65;;;;;;;;;;4982223;28;20034;-59
2021/05/31 06:32:01;;;;;;;3.08;2.50;;;;;;;;;;4983493;28;20080;-59
2021/05/31 06:34:26;;;;;;;3.03;2.55;;;;;;;;;;4981386;28;20050;-59
2021/05/31 06:36:55;;;;;;;4.25;2.83;;;;;;;;;;5014376;28;20034;-59
2021/05/31 06:39:24;;;;;;;4.57;2.88;;;;;;;;;;4982714;28;20841;-59
2021/05/31 06:41:50;;;;;;;3.50;2.38;;;;;;;;;;4984386;28;20026;-59
2021/05/31 06:44:16;;;;;;;6.68;2.75;;;;;;;;;;4967958;28;20119;-59
2021/05/31 06:46:45;;;;;;;4.30;1.98;;;;;;;;;;4978066;28;20018;-59
2021/05/31 06:49:11;;;;;;;3.15;2.08;;;;;;;;;;4981879;28;20037;-60
2021/05/31 06:51:37;;;;;;;3.88;2.38;;;;;;;;;;4984102;28;20527;-59
2021/05/31 06:54:05;;;;;;;4.80;2.38;;;;;;;;;;4983422;28;20049;-59
2021/05/31 06:56:32;;;;;;;4.63;2.40;;;;;;;;;;4999615;28;20038;-59
2021/05/31 06:58:58;;;;;;;5.05;2.47;;;;;;;;;;4985683;28;20579;-58
2021/05/31 07:01:24;;;;;;;3.20;2.47;;;;;;;;;;4984095;28;20034;-59
2021/05/31 07:03:49;;;;;;;2.90;2.22;;;;;;;;;;4986395;28;20057;-59
2021/05/31 07:06:15;;;;;;;3.55;2.90;;;;;;;;;;5020341;28;20037;-58
2021/05/31 07:08:41;;;;;;;3.17;2.70;;;;;;;;;;4988054;28;20026;-58
2021/05/31 07:11:13;;;;;;;5.60;3.08;;;;;;;;;;4988742;28;20026;-58
2021/05/31 07:13:39;;;;;;;4.78;3.70;;;;;;;;;;4997356;28;20514;-58
2021/05/31 07:16:07;;;;;;;4.65;3.33;;;;;;;;;;4983557;28;20018;-59
2021/05/31 07:18:33;;;;;;;4.13;2.88;;;;;;;;;;4986785;28;20034;-58
2021/05/31 07:21:01;;;;;;;7.60;3.38;;;;;;;;;;5001488;28;20038;-58
2021/05/31 07:23:27;;;;;;;4.05;2.80;;;;;;;;;;4988496;28;20049;-58
2021/05/31 07:25:53;;;;;;;4.15;3.15;;;;;;;;;;4987682;28;20031;-58
2021/05/31 07:28:18;;;;;;;5.07;3.08;;;;;;;;;;4987846;28;20026;-58
2021/05/31 07:30:44;;;;;;;3.70;3.13;;;;;;;;;;4986425;28;20034;-58
2021/05/31 07:33:11;;;;;;;5.88;2.97;;;;;;;;;;4986823;28;20022;-58
2021/05/31 07:35:40;;;;;;;5.03;3.15;;;;;;;;;;5021012;28;20030;-59
2021/05/31 07:38:06;;;;;;;6.05;3.47;;;;;;;;;;4984631;28;20030;-58
2021/05/31 07:40:34;;;;;;;4.38;3.28;;;;;;;;;;4986711;28;20049;-59
2021/05/31 07:43:00;;;;;;;5.38;3.25;;;;;;;;;;4984367;28;20026;-58
2021/05/31 07:45:26;;;;;;;6.82;3.40;;;;;;;;;;4986073;28;20385;-59
2021/05/31 07:47:52;;;;;;;4.57;3.20;;;;;;;;;;4985410;28;20054;-58
2021/05/31 07:50:20;;;;;;;3.63;2.95;;;;;;;;;;4980710;28;20057;-58
2021/05/31 07:52:46;;;;;;;4.35;3.17;;;;;;;;;;5017882;28;20026;-58
2021/05/31 07:55:14;;;;;;;5.50;2.70;;;;;;;;;;4984692;28;20030;-59
2021/05/31 07:57:41;;;;;;;5.32;3.00;;;;;;;;;;5015201;28;20559;-59
2021/05/31 08:00:10;;;;;;;4.45;3.20;;;;;;;;;;4984239;28;20503;-59
2021/05/31 08:02:38;;;;;;;4.25;3.08;;;;;;;;;;4986351;28;20030;-59
2021/05/31 08:05:04;;;;;;;3.65;3.35;;;;;;;;;;4985993;28;20069;-58
2021/05/31 08:07:29;;;;;;;4.53;3.13;;;;;;;;;;4984905;28;20117;-59
2021/05/31 08:09:55;;;;;;;4.45;3.38;;;;;;;;;;4985686;28;20563;-59
2021/05/31 08:12:21;;;;;;;5.00;3.00;;;;;;;;;;4985840;28;20105;-59
2021/05/31 08:14:47;;;;;;;4.20;3.20;;;;;;;;;;4984579;28;20030;-59
2021/05/31 08:17:13;;;;;;;5.07;3.05;;;;;;;;;;4978368;28;20033;-59
2021/05/31 08:19:42;;;;;;;5.55;3.40;;;;;;;;;;4985299;28;20038;-59
2021/05/31 08:22:08;;;;;;;7.35;3.30;;;;;;;;;;4985662;28;20042;-58
2021/05/31 08:24:34;;;;;;;5.43;3.20;;;;;;;;;;4969570;28;20105;-58
2021/05/31 08:27:00;;;;;;;2.65;2.45;;;;;;;;;;4987044;28;20117;-58
2021/05/31 08:29:26;;;;;;;2.53;2.33;;;;;;;;;;4990923;28;20122;-58
2021/05/31 08:31:56;;;;;;;2.97;2.67;;;;;;;;;;5015289;28;20073;-58
2021/05/31 08:34:23;;;;;;;3.00;2.70;;;;;;;;;;4984243;28;20039;-58
2021/05/31 08:36:48;;;;;;;3.63;2.50;;;;;;;;;;4996386;28;20045;-58
2021/05/31 08:39:15;;;;;;;4.07;2.75;;;;;;;;;;4982992;28;20038;-59
2021/05/31 08:41:41;;;;;;;2.97;2.67;;;;;;;;;;5013561;28;20035;-59
2021/05/31 08:44:07;;;;;;;4.25;2.50;;;;;;;;;;4980833;28;20031;-59
2021/05/31 08:46:35;;;;;;;3.78;3.10;;;;;;;;;;4986202;28;20080;-58
2021/05/31 08:49:02;;;;;;;2.58;2.25;;;;;;;;;;4986120;28;20069;-58
2021/05/31 08:51:32;;;;;;;3.42;2.50;;;;;;;;;;4983993;28;20031;-59
2021/05/31 08:53:59;;;;;;;7.68;2.40;;;;;;;;;;4980959;28;20037;-58
2021/05/31 08:56:25;;;;;;;4.80;2.20;;;;;;;;;;5000764;28;20088;-59
2021/05/31 08:58:51;;;;;;;3.95;2.58;;;;;;;;;;4984919;28;20034;-59
2021/05/31 09:01:19;;;;;;;3.97;2.40;;;;;;;;;;5015621;28;20284;-59
2021/05/31 09:03:46;;;;;;;2.72;2.20;;;;;;;;;;5015686;28;20065;-59
2021/05/31 09:06:14;;;;;;;3.65;2.88;;;;;;;;;;4997662;28;20030;-59
2021/05/31 09:08:45;;;;;;;3.97;3.58;;;;;;;;;;4985417;28;20030;-59
2021/05/31 09:11:17;;;;;;;4.97;3.05;;;;;;;;;;4982967;28;20460;-58
2021/05/31 09:13:43;;;;;;;4.30;2.58;;;;;;;;;;4983756;28;20022;-58
2021/05/31 09:16:18;;;;;;;4.70;3.08;;;;;;;;;;4984555;28;20033;-59
2021/05/31 09:18:58;;;;;;;2.92;2.38;;;;;;;;;;4987277;28;20425;-58
2021/05/31 09:21:39;;;;;;;3.85;2.75;;;;;;;;;;4982885;28;20042;-59
2021/05/31 09:24:08;;;;;;;2.63;2.40;;;;;;;;;;4981751;28;20030;-58
2021/05/31 09:26:49;;;;;;;6.07;3.85;;;;;;;;;;4983623;28;20111;-58
2021/05/31 09:29:16;;;;;;;6.28;3.67;;;;;;;;;;4998089;28;20033;-58
2021/05/31 09:31:42;;;;;;;3.85;3.10;;;;;;;;;;4994871;28;20066;-58
2021/05/31 09:34:10;;;;;;;5.40;3.00;;;;;;;;;;4984167;28;20034;-58
2021/05/31 09:36:51;;;;;;;2.97;2.77;;;;;;;;;;4984638;28;20078;-58
2021/05/31 09:39:18;;;;;;;5.22;2.47;;;;;;;;;;4981433;28;20281;-59
2021/05/31 09:41:43;;;;;;;4.68;3.15;;;;;;;;;;4984697;28;20092;-59
2021/05/31 09:44:10;;;;;;;5.03;3.42;;;;;;;;;;4978977;28;20125;-58
2021/05/31 09:46:46;;;;;;;4.00;2.88;;;;;;;;;;4982720;28;20037;-58
2021/05/31 09:49:27;;;;;;;3.47;2.67;;;;;;;;;;5016507;28;20057;-58
2021/05/31 09:51:59;;;;;;;3.45;2.28;;;;;;;;;;4985809;28;20232;-58
2021/05/31 09:54:39;;;;;;;3.25;2.95;;;;;;;;;;4983351;28;20030;-59
2021/05/31 09:57:16;;;;;;;3.17;2.88;;;;;;;;;;4982397;28;20037;-59
2021/05/31 10:00:00;;;;;;;4.00;2.55;;;;;;;;;;4985418;28;20041;-59
2021/05/31 10:02:55;;;;;;;4.40;2.47;;;;;;;;;;4984744;28;20100;-56
2021/05/31 10:10:35;;;;;;;3.03;2.50;;;;;;;;;;4981904;28;20030;-57
2021/05/31 10:13:01;;;;;;;3.70;2.58;;;;;;;;;;4983562;28;20497;-56
2021/05/31 10:15:29;;;;;;;7.22;2.75;;;;;;;;;;4983168;28;20034;-56
2021/05/31 10:17:57;;;;;;;3.67;2.53;;;;;;;;;;4981989;28;20213;-56
2021/05/31 10:20:25;;;;;;;2.88;2.40;;;;;;;;;;4984412;28;20041;-57
2021/05/31 10:22:50;;;;;;;3.67;2.40;;;;;;;;;;4985763;28;20108;-56
2021/05/31 10:25:17;;;;;;;4.45;2.50;;;;;;;;;;4978728;28;20026;-58
2021/05/31 10:27:45;;;;;;;4.07;2.58;;;;;;;;;;4982488;28;20551;-57
2021/05/31 10:30:16;;;;;;;3.42;2.50;;;;;;;;;;5013130;28;20169;-57
2021/05/31 10:32:41;;;;;;;6.35;2.70;;;;;;;;;;4986491;28;20022;-58
2021/05/31 10:35:27;;;;;;;3.70;2.92;;;;;;;;;;4980618;28;20048;-56
2021/05/31 10:37:55;;;;;;;2.80;2.42;;;;;;;;;;4983008;28;20034;-57
2021/05/31 10:40:31;;;;;;;3.00;2.80;;;;;;;;;;5001043;28;20113;-56
2021/05/31 10:42:57;;;;;;;4.25;2.95;;;;;;;;;;4984115;28;20026;-58
2021/05/31 10:45:23;;;;;;;2.90;2.60;;;;;;;;;;4982197;28;20038;-58
2021/05/31 10:48:11;;;;;;;4.22;2.92;;;;;;;;;;5011666;28;20099;-59
2021/05/31 10:50:48;;;;;;;5.65;3.33;;;;;;;;;;5009897;28;20035;-58
2021/05/31 10:53:27;;;;;;;4.40;2.50;;;;;;;;;;4982437;28;20397;-58
2021/05/31 10:56:00;;;;;;;3.50;2.22;;;;;;;;;;4983398;28;20079;-59
2021/05/31 10:58:35;;;;;;;5.28;2.50;;;;;;;;;;4984307;28;20516;-59
2021/05/31 11:01:04;;;;;;;3.20;2.40;;;;;;;;;;4981849;28;20041;-59
2021/05/31 11:03:30;;;;;;;;;;;;;;;;;;5013337;28;20053;-60
2021/05/31 11:05:56;;;;;;;3.47;2.42;;;;;;;;;;4983176;28;20373;-59
2021/05/31 11:08:30;;;;;;;4.43;2.50;;;;;;;;;;4983450;28;20696;-59
2021/05/31 11:11:01;;;;;;;4.50;3.00;;;;;;;;;;4983088;28;20035;-60
2021/05/31 11:13:27;;;;;;;3.47;3.17;;;;;;;;;;4983114;28;20085;-60
2021/05/31 11:16:19;;;;;;;5.18;2.70;;;;;;;;;;4970397;28;20516;-59
2021/05/31 11:18:47;;;;;;;3.33;2.85;;;;;;;;;;4982220;28;20045;-60
2021/05/31 11:21:34;;;;;;;2.80;2.60;;;;;;;;;;4983768;28;20141;-59
2021/05/31 11:24:05;;;;;;;3.80;2.90;;;;;;;;;;4983988;28;20026;-60
2021/05/31 11:26:37;;;;;;;4.68;3.00;;;;;;;;;;4984435;28;20038;-59
2021/05/31 11:29:05;;;;;;;3.10;2.90;;;;;;;;;;4983569;28;20183;-59
2021/05/31 11:31:31;;;;;;;4.20;2.67;;;;;;;;;;4995940;28;20038;-60
2021/05/31 11:33:57;;;;;;;6.03;3.03;;;;;;;;;;4984353;28;20581;-59
2021/05/31 11:36:50;;;;;;;3.53;2.70;;;;;;;;;;4982182;28;20077;-60
2021/05/31 11:39:17;;;;;;;3.05;2.83;;;;;;;;;;4980908;28;20202;-60
2021/05/31 11:41:46;;;;;;;3.78;2.40;;;;;;;;;;4985398;28;20030;-59
2021/05/31 11:44:14;;;;;;;2.92;2.70;;;;;;;;;;4985041;28;20026;-60
2021/05/31 11:46:51;;;;;;;3.47;3.00;;;;;;;;;;4984165;28;20041;-60
2021/05/31 11:49:18;;;;;;;3.15;2.63;;;;;;;;;;4982007;28;20033;-59
2021/05/31 11:52:07;;;;;;;3.13;2.30;;;;;;;;;;4986039;28;20030;-60
2021/05/31 11:54:34;;;;;;;;;;;;;;;;;;4984086;28;20229;-60
2021/05/31 11:57:01;;;;;;;2.65;2.40;;;;;;;;;;4998859;28;19928;-60
2021/05/31 11:59:37;;;;;;;2.60;2.38;;;;;;;;;;4982606;28;20097;-59
2021/05/31 12:02:17;;;;;;;5.28;2.70;;;;;;;;;;4986986;28;20022;-59
2021/05/31 12:04:47;;;;;;;3.78;2.67;;;;;;;;;;4983401;28;20026;-59
2021/05/31 12:07:15;;;;;;;3.35;2.40;;;;;;;;;;4982679;28;20029;-59
2021/05/31 12:09:43;;;;;;;3.85;2.47;;;;;;;;;;4986913;28;20037;-59
2021/05/31 12:12:10;;;;;;;3.00;2.33;;;;;;;;;;4985602;28;20084;-59
2021/05/31 12:14:52;;;;;;;2.75;2.38;;;;;;;;;;4986724;28;20188;-59
2021/05/31 12:17:20;;;;;;;2.58;2.38;;;;;;;;;;5015802;28;20074;-59
2021/05/31 12:19:51;;;;;;;3.33;2.17;;;;;;;;;;4988251;28;20026;-59
2021/05/31 12:22:30;;;;;;;5.10;2.40;;;;;;;;;;4983479;28;20456;-59
2021/05/31 12:24:59;;;;;;;3.70;2.67;;;;;;;;;;4983179;28;20018;-59
2021/05/31 12:27:32;;;;;;;3.03;2.30;;;;;;;;;;4985386;28;20049;-59
2021/05/31 12:29:59;;;;;;;3.95;2.35;;;;;;;;;;4984550;28;20034;-59
2021/05/31 12:32:26;;;;;;;2.42;2.22;;;;;;;;;;4999089;28;20038;-59
2021/05/31 12:34:53;;;;;;;6.72;2.50;;;;;;;;;;4983310;28;20034;-59
2021/05/31 12:37:23;;;;;;;3.00;2.70;;;;;;;;;;4983506;28;20041;-59
2021/05/31 12:39:52;;;;;;;4.38;2.40;;;;;;;;;;4984465;28;20034;-60
2021/05/31 12:42:23;;;;;;;3.10;2.30;;;;;;;;;;4986870;28;20366;-59
2021/05/31 12:44:49;;;;;;;3.13;2.10;;;;;;;;;;5018387;28;20033;-58
2021/05/31 12:47:17;;;;;;;2.55;2.35;;;;;;;;;;5018736;28;20022;-57
2021/05/31 12:49:45;;;;;;;2.20;1.98;;;;;;;;;;4984301;28;20572;-59
2021/05/31 12:52:12;;;;;;;2.95;2.13;;;;;;;;;;4984590;28;20497;-59
2021/05/31 12:54:38;;;;;;;2.55;2.15;;;;;;;;;;4984062;28;20038;-59
2021/05/31 12:57:18;;;;;;;2.58;1.88;;;;;;;;;;4985706;28;20049;-59
2021/05/31 12:59:47;;;;;;;3.03;2.00;;;;;;;;;;5015152;28;20039;-59
2021/05/31 13:02:17;;;;;;;3.63;2.10;;;;;;;;;;4985628;28;20104;-59
2021/05/31 13:04:43;;;;;;;3.33;2.42;;;;;;;;;;4983321;28;20097;-59
2021/05/31 13:07:14;;;;;;;3.22;2.25;;;;;;;;;;4985069;28;20034;-58
2021/05/31 13:09:40;;;;;;;2.13;1.92;;;;;;;;;;4986674;28;20033;-59
2021/05/31 13:12:07;;;;;;;2.50;2.15;;;;;;;;;;4984684;28;20034;-59
2021/05/31 13:14:32;;;;;;;2.67;2.47;;;;;;;;;;4994450;28;20027;-59
2021/05/31 13:17:00;;;;;;;2.63;2.05;;;;;;;;;;4982933;28;20149;-59
2021/05/31 13:19:31;;;;;;;4.40;2.45;;;;;;;;;;4983481;28;20030;-59
2021/05/31 13:22:05;;;;;;;2.78;2.30;;;;;;;;;;4987953;28;20451;-59
2021/05/31 13:24:33;;;;;;;2.65;2.45;;;;;;;;;;4987027;28;20053;-59
2021/05/31 13:27:16;;;;;;;2.95;2.30;;;;;;;;;;4980993;28;20038;-59
2021/05/31 13:30:00;;;;;;;2.58;2.13;;;;;;;;;;4983003;28;20506;-59
2021/05/31 13:32:28;;;;;;;2.40;2.20;;;;;;;;;;5016598;28;20083;-58
2021/05/31 13:35:03;;;;;;;2.57;2.30;;;;;;;;;;4986142;28;20041;-59
2021/05/31 13:37:30;;;;;;;5.28;2.60;;;;;;;;;;5015808;28;20343;-59
2021/05/31 13:39:58;;;;;;;2.88;2.33;;;;;;;;;;4980964;28;20026;-60
2021/05/31 13:42:28;;;;;;;2.58;2.33;;;;;;;;;;5017431;28;20525;-59
2021/05/31 13:45:06;;;;;;;7.15;2.58;;;;;;;;;;4984074;28;20390;-59
2021/05/31 13:47:33;;;;;;;2.80;2.10;;;;;;;;;;4984993;28;20108;-59
2021/05/31 13:49:59;;;;;;;2.50;2.30;;;;;;;;;;5012357;28;20476;-59
2021/05/31 13:52:25;;;;;;;3.25;1.98;;;;;;;;;;5022812;28;20033;-59
2021/05/31 13:54:51;;;;;;;3.30;2.33;;;;;;;;;;5007923;28;20095;-59
2021/05/31 13:57:17;;;;;;;2.83;2.00;;;;;;;;;;5019433;28;20030;-59
2021/05/31 13:59:42;;;;;;;2.10;1.90;;;;;;;;;;5009487;28;20028;-59
2021/05/31 14:02:08;;;;;;;3.65;2.45;;;;;;;;;;5007349;28;20026;-59
2021/05/31 14:04:34;;;;;;;3.08;2.30;;;;;;;;;;5006047;28;20124;-59
2021/05/31 14:07:00;;;;;;;2.95;2.30;;;;;;;;;;5007220;28;20091;-59
2021/05/31 14:09:26;;;;;;;2.65;2.33;;;;;;;;;;5007526;28;20037;-58
2021/05/31 14:11:52;;;;;;;4.13;2.20;;;;;;;;;;5005075;28;20052;-59
2021/05/31 14:14:18;;;;;;;2.42;2.13;;;;;;;;;;5008018;28;20567;-58
2021/05/31 14:16:44;;;;;;;4.47;2.50;;;;;;;;;;5006637;28;20045;-59
2021/05/31 14:19:09;;;;;;;3.50;1.95;;;;;;;;;;5006777;28;20033;-59
2021/05/31 14:21:35;;;;;;;3.25;2.60;;;;;;;;;;5007340;28;20032;-59
2021/05/31 14:24:01;;;;;;;1.95;1.75;;;;;;;;;;5040441;28;20087;-59
2021/05/31 14:26:27;;;;;;;1.92;1.83;;;;;;;;;;5015670;28;20435;-59
2021/05/31 14:28:53;;;;;;;2.20;1.83;;;;;;;;;;5037076;28;20634;-59
2021/05/31 14:31:18;;;;;;;2.17;1.90;;;;;;;;;;5006343;28;20022;-59
2021/05/31 14:33:44;;;;;;;2.00;1.80;;;;;;;;;;5007414;28;20092;-59
2021/05/31 14:36:10;;;;;;;4.07;2.00;;;;;;;;;;5004796;28;20040;-59
2021/05/31 14:38:37;;;;;;;2.00;1.90;;;;;;;;;;5018365;28;20488;-59
2021/05/31 14:41:04;;;;;;;1.80;1.70;;;;;;;;;;5005085;28;20065;-59
2021/05/31 14:43:31;;;;;;;3.85;1.90;;;;;;;;;;5005934;28;20077;-59
2021/05/31 14:45:58;;;;;;;3.15;2.30;;;;;;;;;;5003294;28;20046;-59
2021/05/31 14:48:26;;;;;;;2.15;1.77;;;;;;;;;;5003702;28;20029;-59
2021/05/31 14:50:52;;;;;;;3.67;1.90;;;;;;;;;;5024074;28;20069;-59
2021/05/31 14:53:18;;;;;;;2.28;1.90;;;;;;;;;;5009592;28;20057;-58
2021/05/31 14:55:43;;;;;;;4.30;2.10;;;;;;;;;;5027309;28;20056;-57
2021/05/31 14:58:10;;;;;;;2.00;1.80;;;;;;;;;;5002203;28;20295;-57
2021/05/31 15:00:36;;;;;;;2.38;1.77;;;;;;;;;;5002349;28;20092;-57
2021/05/31 15:03:02;;;;;;;2.33;1.70;;;;;;;;;;5007131;28;20034;-57
2021/05/31 15:05:28;;;;;;;2.55;1.83;;;;;;;;;;5044983;28;20038;-57
2021/05/31 15:07:53;;;;;;;2.45;1.70;;;;;;;;;;5002397;28;20034;-57
2021/05/31 15:10:21;;;;;;;3.30;1.65;;;;;;;;;;5002716;28;20396;-58